Time;durP1;ratioP1;P1;durP2;ratioP2;P2;SDS_P1;SDS_P2;PMS_P1;PMS_P2;Temp;Humidity;BMP_temperature;BMP_pressure;BME280_temperature;BME280_humidity;BME280_pressure;Samples;Min_cycle;Max_cycle;Signal;HPM_P1;HPM_P2
2024/03/18 00:00:01;;;;;;;16.07;12.17;;;;;;;4.89;74.10;93571.38;520760;28;1058;-68
2024/03/18 00:00:18;;;;;;;15.30;11.77;;;;;;;4.90;74.23;93577.56;520854;28;844;-68
2024/03/18 00:00:35;;;;;;;15.48;11.77;;;;;;;4.91;73.92;93577.06;520701;28;880;-68
2024/03/18 00:00:51;;;;;;;14.68;11.48;;;;;;;4.93;74.41;93577.28;520858;28;887;-68
2024/03/18 00:01:06;;;;;;;14.63;11.65;;;;;;;4.94;74.10;93580.75;520791;28;920;-68
2024/03/18 00:01:22;;;;;;;16.33;11.90;;;;;;;4.92;73.93;93580.53;520895;28;803;-68
2024/03/18 00:01:37;;;;;;;15.02;11.45;;;;;;;4.91;73.81;93574.34;520811;28;828;-68
2024/03/18 00:01:52;;;;;;;14.03;10.83;;;;;;;4.88;73.89;93582.78;520824;28;801;-68
2024/03/18 00:02:08;;;;;;;15.90;10.93;;;;;;;4.87;73.54;93568.41;520762;28;916;-68
2024/03/18 00:02:24;;;;;;;16.20;11.50;;;;;;;4.90;73.78;93574.81;520945;28;772;-68
2024/03/18 00:02:52;;;;;;;16.55;12.07;;;;;;;4.89;73.99;93573.34;520864;28;897;-68
2024/03/18 00:03:08;;;;;;;18.85;12.77;;;;;;;4.85;73.28;93575.63;520690;28;828;-68
2024/03/18 00:03:25;;;;;;;18.42;12.65;;;;;;;4.84;73.21;93576.84;520850;28;749;-68
2024/03/18 00:03:41;;;;;;;16.95;12.52;;;;;;;4.85;73.91;93575.63;520859;28;844;-68
2024/03/18 00:03:56;;;;;;;16.77;12.38;;;;;;;4.87;73.10;93581.31;520929;28;860;-68
2024/03/18 00:04:11;;;;;;;14.33;11.07;;;;;;;4.86;73.25;93577.84;520820;28;852;-68
2024/03/18 00:04:27;;;;;;;12.10;9.52;;;;;;;4.84;73.27;93572.13;520827;28;800;-68
2024/03/18 00:04:43;;;;;;;11.47;9.03;;;;;;;4.83;73.00;93570.63;520813;28;832;-68
2024/03/18 00:04:58;;;;;;;10.65;8.55;;;;;;;4.80;73.09;93570.91;520817;28;887;-68
2024/03/18 00:05:18;;;;;;;10.17;8.40;;;;;;;4.80;73.01;93573.66;520867;28;780;-68
2024/03/18 00:05:34;;;;;;;9.52;8.52;;;;;;;4.81;72.78;93570.41;520823;28;804;-68
2024/03/18 00:05:49;;;;;;;10.85;9.25;;;;;;;4.83;72.58;93567.19;520826;28;864;-68
2024/03/18 00:06:05;;;;;;;12.40;9.50;;;;;;;4.85;72.28;93567.41;520762;28;753;-68
2024/03/18 00:06:20;;;;;;;11.82;9.43;;;;;;;4.86;72.07;93563.41;520882;28;789;-68
2024/03/18 00:06:35;;;;;;;11.30;9.90;;;;;;;4.88;71.85;93569.13;520822;28;769;-68
2024/03/18 00:06:51;;;;;;;12.48;10.25;;;;;;;4.88;71.38;93564.38;520902;28;781;-68
2024/03/18 00:07:06;;;;;;;13.00;10.33;;;;;;;4.89;71.39;93568.63;520800;28;844;-68
2024/03/18 00:07:23;;;;;;;12.00;10.47;;;;;;;4.90;71.74;93563.88;520867;28;837;-68
2024/03/18 00:07:39;;;;;;;11.38;10.18;;;;;;;4.91;71.50;93562.63;520861;28;868;-68
2024/03/18 00:07:55;;;;;;;11.70;9.80;;;;;;;4.90;71.33;93567.34;520837;28;824;-68
2024/03/18 00:08:10;;;;;;;12.45;10.02;;;;;;;4.91;71.22;93562.63;520787;28;1010;-68
2024/03/18 00:08:26;;;;;;;13.83;11.20;;;;;;;4.92;71.53;93564.09;520873;28;855;-68
2024/03/18 00:08:41;;;;;;;14.70;11.75;;;;;;;4.93;71.40;93563.63;520816;28;915;-68
2024/03/18 00:08:57;;;;;;;15.30;11.37;;;;;;;4.92;71.35;93564.84;520834;28;788;-68
2024/03/18 00:09:12;;;;;;;14.38;10.90;;;;;;;4.95;71.21;93565.84;520840;28;926;-68
2024/03/18 00:09:28;;;;;;;12.83;10.90;;;;;;;4.94;71.60;93564.34;520842;28;823;-68
2024/03/18 00:09:43;;;;;;;13.38;10.93;;;;;;;4.94;71.69;93559.63;520883;28;861;-68
2024/03/18 00:09:58;;;;;;;12.50;10.40;;;;;;;4.94;71.27;93565.09;520771;28;915;-68
2024/03/18 00:10:14;;;;;;;12.90;10.88;;;;;;;4.94;71.68;93562.34;520761;28;844;-68
2024/03/18 00:10:29;;;;;;;12.67;10.73;;;;;;;4.95;71.66;93568.56;520588;28;974;-68
2024/03/18 00:10:45;;;;;;;11.90;10.67;;;;;;;4.89;71.80;93567.88;520706;28;852;-68
2024/03/18 00:11:01;;;;;;;12.43;10.98;;;;;;;4.75;72.33;93566.97;520690;28;868;-68
2024/03/18 00:11:17;;;;;;;12.82;10.70;;;;;;;4.73;72.14;93563.25;520673;28;952;-68
2024/03/18 00:11:32;;;;;;;11.90;10.35;;;;;;;4.68;72.30;93561.31;520618;28;797;-68
2024/03/18 00:11:47;;;;;;;12.37;10.60;;;;;;;4.67;72.71;93568.03;520667;28;919;-68
2024/03/18 00:12:03;;;;;;;14.70;11.40;;;;;;;4.65;72.64;93556.84;520694;28;824;-68
2024/03/18 00:12:18;;;;;;;14.57;11.03;;;;;;;4.68;72.92;93559.31;520693;28;820;-68
2024/03/18 00:12:40;;;;;;;12.45;10.50;;;;;;;4.69;72.57;93560.81;520840;28;792;-68
2024/03/18 00:12:55;;;;;;;11.95;9.95;;;;;;;4.62;72.65;93566.81;520747;28;930;-68
2024/03/18 00:13:10;;;;;;;11.83;9.83;;;;;;;4.61;72.47;93565.34;520894;28;750;-68
2024/03/18 00:13:26;;;;;;;12.13;10.13;;;;;;;4.61;72.73;93566.06;520843;28;793;-68
2024/03/18 00:13:42;;;;;;;12.67;10.67;;;;;;;4.63;73.00;93568.31;520843;28;843;-68
2024/03/18 00:13:57;;;;;;;13.00;10.80;;;;;;;4.66;72.43;93572.75;520828;28;852;-68
2024/03/18 00:14:13;;;;;;;13.33;10.60;;;;;;;4.66;72.48;93559.06;520887;28;765;-68
2024/03/18 00:14:28;;;;;;;13.32;10.48;;;;;;;4.67;72.01;93560.56;520836;28;860;-68
2024/03/18 00:14:44;;;;;;;12.10;10.23;;;;;;;4.69;72.38;93557.31;520917;28;765;-68
2024/03/18 00:14:59;;;;;;;11.93;9.95;;;;;;;4.72;72.34;93567.25;520776;28;860;-68
2024/03/18 00:15:15;;;;;;;11.73;9.80;;;;;;;4.74;71.86;93565.50;520911;28;753;-68
2024/03/18 00:15:31;;;;;;;11.77;10.05;;;;;;;4.75;71.58;93569.72;520732;28;1967;-68
2024/03/18 00:15:46;;;;;;;12.23;9.98;;;;;;;4.72;71.43;93556.31;520689;28;801;-68
2024/03/18 00:16:02;;;;;;;11.37;9.47;;;;;;;4.78;71.61;93563.22;520737;28;903;-68
2024/03/18 00:16:17;;;;;;;12.77;9.85;;;;;;;4.79;71.09;93561.22;520862;28;796;-68
2024/03/18 00:16:33;;;;;;;12.80;9.67;;;;;;;4.80;71.30;93562.72;520818;28;773;-68
2024/03/18 00:16:48;;;;;;;11.30;9.23;;;;;;;4.81;70.66;93564.22;520898;28;788;-68
2024/03/18 00:17:06;;;;;;;11.80;9.40;;;;;;;4.82;71.23;93565.69;520691;28;843;-68
2024/03/18 00:17:21;;;;;;;12.98;9.65;;;;;;;4.81;71.39;93561.47;520889;28;844;-68
2024/03/18 00:17:37;;;;;;;12.33;9.73;;;;;;;4.82;70.90;93560.22;520832;28;840;-68
2024/03/18 00:17:52;;;;;;;11.73;9.88;;;;;;;4.83;71.12;93556.25;520932;28;918;-68
2024/03/18 00:18:08;;;;;;;12.23;10.07;;;;;;;4.82;71.12;93560.22;520722;28;804;-68
2024/03/18 00:18:24;;;;;;;12.52;9.88;;;;;;;4.77;71.39;93558.25;520931;28;837;-69
2024/03/18 00:18:39;;;;;;;12.40;10.00;;;;;;;4.70;71.46;93556.81;520677;28;785;-70
2024/03/18 00:18:55;;;;;;;10.83;9.50;;;;;;;4.62;71.30;93558.59;520692;28;812;-69
2024/03/18 00:19:10;;;;;;;11.27;9.50;;;;;;;4.44;71.33;93538.09;520697;28;824;-69
2024/03/18 00:19:26;;;;;;;12.97;10.27;;;;;;;4.59;71.80;93548.72;520660;28;1080;-69
2024/03/18 00:19:41;;;;;;;13.30;10.52;;;;;;;4.60;71.68;93559.13;520715;28;808;-69
2024/03/18 00:19:57;;;;;;;14.83;10.60;;;;;;;4.61;71.45;93557.88;520642;28;820;-69
2024/03/18 00:20:12;;;;;;;13.15;10.05;;;;;;;4.59;71.43;93543.97;520716;28;812;-70
2024/03/18 00:20:28;;;;;;;11.53;10.07;;;;;;;4.65;71.76;93551.38;520714;28;812;-69
2024/03/18 00:20:44;;;;;;;12.43;10.68;;;;;;;4.66;71.81;93553.59;520678;28;1173;-68
2024/03/18 00:20:59;;;;;;;14.82;11.57;;;;;;;4.68;71.50;93553.13;520841;28;939;-69
2024/03/18 00:21:15;;;;;;;16.37;12.10;;;;;;;4.69;71.25;93560.81;520805;28;816;-69
2024/03/18 00:21:30;;;;;;;15.60;12.13;;;;;;;4.71;71.22;93557.56;520859;28;761;-69
2024/03/18 00:21:46;;;;;;;16.17;11.97;;;;;;;4.72;71.19;93559.06;520818;28;789;-69
2024/03/18 00:22:01;;;;;;;16.85;12.35;;;;;;;4.72;71.15;93559.78;520846;28;844;-69
2024/03/18 00:22:16;;;;;;;15.50;12.13;;;;;;;4.70;71.52;93556.81;520882;28;737;-69
2024/03/18 00:22:32;;;;;;;15.13;11.65;;;;;;;4.68;71.47;93559.31;520812;28;863;-69
2024/03/18 00:22:48;;;;;;;16.23;11.87;;;;;;;4.70;71.45;93564.28;520720;28;860;-69
2024/03/18 00:23:03;;;;;;;14.18;11.07;;;;;;;4.69;71.90;93557.31;520825;28;784;-69
2024/03/18 00:23:19;;;;;;;13.67;10.70;;;;;;;4.67;72.01;93554.34;520850;28;851;-69
2024/03/18 00:23:34;;;;;;;14.60;11.07;;;;;;;4.63;72.11;93566.31;520838;28;927;-69
2024/03/18 00:23:50;;;;;;;13.40;11.20;;;;;;;4.62;72.01;93561.34;520845;28;1002;-69
2024/03/18 00:24:05;;;;;;;13.25;10.88;;;;;;;4.61;72.44;93566.06;520779;28;880;-69
2024/03/18 00:24:21;;;;;;;14.73;11.33;;;;;;;4.60;72.24;93566.59;520849;28;902;-69
2024/03/18 00:24:36;;;;;;;15.77;11.68;;;;;;;4.60;72.05;93561.88;520797;28;879;-69
2024/03/18 00:24:52;;;;;;;15.60;11.40;;;;;;;4.61;72.71;93559.88;520791;28;737;-69
2024/03/18 00:25:08;;;;;;;14.68;11.52;;;;;;;4.63;72.75;93564.84;520785;28;745;-69
2024/03/18 00:25:23;;;;;;;14.10;11.20;;;;;;;4.63;72.12;93554.63;520825;28;1125;-69
2024/03/18 00:25:39;;;;;;;14.82;11.15;;;;;;;4.64;72.20;93561.56;520796;28;911;-69
2024/03/18 00:25:55;;;;;;;14.23;10.97;;;;;;;4.59;72.44;93563.09;520855;28;793;-69
2024/03/18 00:26:10;;;;;;;11.48;9.80;;;;;;;4.56;72.46;93552.44;520841;28;825;-69
2024/03/18 00:26:26;;;;;;;11.87;9.90;;;;;;;4.51;71.94;93559.44;520847;28;741;-69
2024/03/18 00:26:41;;;;;;;13.65;10.52;;;;;;;4.49;72.00;93553.72;520878;28;847;-69
2024/03/18 00:26:56;;;;;;;14.33;10.43;;;;;;;4.43;72.09;93553.03;520809;28;805;-69
2024/03/18 00:27:13;;;;;;;13.43;10.57;;;;;;;4.41;71.70;93554.78;520904;28;753;-69
2024/03/18 00:27:29;;;;;;;12.40;10.98;;;;;;;4.33;71.69;93549.09;520854;28;828;-69
2024/03/18 00:27:45;;;;;;;13.30;11.15;;;;;;;4.31;72.50;93556.34;520886;28;757;-69
2024/03/18 00:28:00;;;;;;;14.50;11.13;;;;;;;4.29;72.44;93559.56;520863;28;796;-69
2024/03/18 00:28:15;;;;;;;13.93;10.73;;;;;;;4.28;72.26;93558.09;520778;28;844;-69
2024/03/18 00:28:32;;;;;;;14.55;11.07;;;;;;;4.27;72.61;93558.56;520800;28;828;-69
2024/03/18 00:28:47;;;;;;;15.10;11.07;;;;;;;4.27;71.98;93551.13;520864;28;808;-69
2024/03/18 00:29:03;;;;;;;13.87;11.23;;;;;;;4.22;72.04;93565.56;520751;28;876;-69
2024/03/18 00:29:19;;;;;;;13.63;11.60;;;;;;;4.21;72.72;93555.13;520865;28;855;-69
2024/03/18 00:29:35;;;;;;;14.67;11.47;;;;;;;4.19;72.57;93555.66;520791;28;745;-69
2024/03/18 00:29:50;;;;;;;15.45;12.00;;;;;;;4.18;72.72;93562.34;520831;28;855;-69
2024/03/18 00:30:07;;;;;;;15.40;12.20;;;;;;;4.16;72.32;93556.66;520754;28;760;-69
2024/03/18 00:30:22;;;;;;;14.95;11.65;;;;;;;4.17;72.52;93557.41;520832;28;820;-69
2024/03/18 00:30:39;;;;;;;15.70;11.97;;;;;;;4.18;72.62;93554.16;520822;28;954;-69
2024/03/18 00:30:54;;;;;;;14.63;11.77;;;;;;;4.17;72.43;93562.84;520689;28;891;-69
2024/03/18 00:31:13;;;;;;;15.00;11.80;;;;;;;4.18;72.59;93559.59;520772;28;914;-69
2024/03/18 00:31:28;;;;;;;16.83;12.73;;;;;;;4.18;72.32;93559.59;520743;28;899;-69
2024/03/18 00:31:44;;;;;;;15.73;12.30;;;;;;;4.20;71.85;93556.41;520834;28;788;-69
2024/03/18 00:32:00;;;;;;;16.35;12.32;;;;;;;4.21;72.01;93553.16;520766;28;947;-69
2024/03/18 00:32:16;;;;;;;15.93;12.57;;;;;;;4.23;71.80;93552.63;520785;28;830;-69
2024/03/18 00:32:33;;;;;;;14.48;11.70;;;;;;;4.26;71.58;93560.59;520809;28;856;-69
2024/03/18 00:32:48;;;;;;;11.73;9.60;;;;;;;4.27;71.55;93556.59;520843;28;792;-69
2024/03/18 00:33:04;;;;;;;10.67;9.10;;;;;;;4.29;71.54;93553.34;520786;28;799;-69
2024/03/18 00:33:19;;;;;;;11.63;9.95;;;;;;;4.30;71.81;93552.09;520878;28;776;-69
2024/03/18 00:33:35;;;;;;;13.17;10.73;;;;;;;4.32;71.20;93549.59;520977;28;895;-69
2024/03/18 00:33:50;;;;;;;13.55;10.75;;;;;;;4.33;71.84;93557.28;521216;28;792;-69
2024/03/18 00:34:06;;;;;;;13.57;10.80;;;;;;;4.31;71.48;93550.88;521224;28;840;-69
2024/03/18 00:34:21;;;;;;;13.38;10.38;;;;;;;4.32;71.81;93555.06;521302;28;789;-69
2024/03/18 00:34:36;;;;;;;12.47;9.83;;;;;;;4.32;71.15;93544.88;521243;28;760;-69
2024/03/18 00:34:52;;;;;;;11.52;9.52;;;;;;;4.34;71.84;93552.56;521262;28;927;-69
2024/03/18 00:35:13;;;;;;;11.40;9.50;;;;;;;4.34;71.67;93547.84;521108;28;808;-69
2024/03/18 00:35:29;;;;;;;11.75;9.90;;;;;;;4.36;71.22;93548.09;521060;28;1968;-69
2024/03/18 00:35:44;;;;;;;12.55;10.20;;;;;;;4.37;71.32;93543.38;521321;28;832;-69
2024/03/18 00:36:00;;;;;;;12.32;10.30;;;;;;;4.37;71.75;93552.31;521150;28;840;-69
2024/03/18 00:36:16;;;;;;;11.63;10.10;;;;;;;4.32;71.48;93539.41;521217;28;973;-69
2024/03/18 00:36:31;;;;;;;12.65;10.10;;;;;;;4.39;71.75;93555.28;521252;28;802;-69
2024/03/18 00:36:47;;;;;;;12.77;9.30;;;;;;;4.38;71.45;93553.78;521283;28;765;-69
2024/03/18 00:37:02;;;;;;;12.75;9.48;;;;;;;4.35;71.35;93549.31;521225;28;797;-69
2024/03/18 00:37:18;;;;;;;12.00;9.80;;;;;;;4.32;71.75;93558.56;521228;28;769;-69
2024/03/18 00:37:34;;;;;;;11.50;9.57;;;;;;;4.33;72.04;93559.31;521277;28;809;-69
2024/03/18 00:37:49;;;;;;;11.05;9.43;;;;;;;4.28;72.19;93551.88;521194;28;808;-69
2024/03/18 00:38:05;;;;;;;10.27;8.97;;;;;;;4.24;72.27;93552.16;521232;28;785;-69
2024/03/18 00:38:20;;;;;;;10.23;8.82;;;;;;;4.23;71.96;93547.91;521238;28;832;-69
2024/03/18 00:38:36;;;;;;;10.17;8.80;;;;;;;4.23;72.38;93547.91;521196;28;839;-69
2024/03/18 00:38:51;;;;;;;11.15;9.18;;;;;;;4.21;72.41;93553.16;521250;28;835;-69
2024/03/18 00:39:07;;;;;;;11.40;9.20;;;;;;;4.19;72.28;93550.19;521155;28;898;-69
2024/03/18 00:39:22;;;;;;;10.60;8.43;;;;;;;4.21;72.77;93549.66;521115;28;852;-69
2024/03/18 00:39:37;;;;;;;11.07;8.10;;;;;;;4.22;72.23;93545.69;521217;28;823;-69
2024/03/18 00:39:53;;;;;;;10.80;8.02;;;;;;;4.23;72.57;93550.66;521265;28;907;-69
2024/03/18 00:40:09;;;;;;;9.73;8.00;;;;;;;4.25;73.02;93552.88;521127;28;789;-69
2024/03/18 00:40:24;;;;;;;9.25;8.05;;;;;;;4.25;72.84;93553.63;521271;28;777;-69
2024/03/18 00:40:40;;;;;;;12.27;8.60;;;;;;;4.24;72.86;93557.63;521174;28;776;-69
2024/03/18 00:41:45;;;;;;;12.05;9.57;;;;;;;4.20;73.00;93548.91;521172;28;761;-69
2024/03/18 00:42:02;;;;;;;13.70;10.53;;;;;;;4.19;73.21;93549.44;521151;28;886;-69
2024/03/18 00:42:17;;;;;;;11.68;9.98;;;;;;;4.21;73.36;93544.94;521232;28;795;-69
2024/03/18 00:42:33;;;;;;;12.30;10.02;;;;;;;4.23;73.24;93547.91;521309;28;757;-69
2024/03/18 00:42:48;;;;;;;13.10;10.47;;;;;;;4.23;73.54;93547.91;521213;28;831;-69
2024/03/18 00:43:04;;;;;;;12.53;10.23;;;;;;;4.23;73.59;93545.19;521223;28;807;-69
2024/03/18 00:43:19;;;;;;;12.85;9.38;;;;;;;4.23;73.54;93545.19;521210;28;768;-69
2024/03/18 00:43:35;;;;;;;11.60;8.87;;;;;;;4.24;72.92;93549.41;521099;28;890;-69
2024/03/18 00:43:50;;;;;;;10.90;9.57;;;;;;;4.09;72.98;93520.94;521303;28;843;-69
2024/03/18 00:44:05;;;;;;;10.83;9.20;;;;;;;4.29;73.26;93547.88;521206;28;761;-69
2024/03/18 00:44:23;;;;;;;10.65;8.68;;;;;;;4.30;73.32;93543.91;521251;28;855;-69
2024/03/18 00:44:38;;;;;;;11.23;8.95;;;;;;;4.32;73.63;93555.06;521073;28;1109;-69
2024/03/18 00:44:54;;;;;;;11.13;9.57;;;;;;;4.33;73.01;93542.91;521214;28;788;-69
2024/03/18 00:45:11;;;;;;;11.13;9.90;;;;;;;4.34;72.92;93547.84;521163;28;881;-69
2024/03/18 00:45:27;;;;;;;12.23;10.30;;;;;;;4.35;72.72;93546.59;521212;28;910;-69
2024/03/18 00:45:42;;;;;;;12.37;10.30;;;;;;;4.35;72.89;93541.13;521252;28;804;-69
2024/03/18 00:45:58;;;;;;;11.27;9.07;;;;;;;4.29;72.58;93540.41;521175;28;781;-69
2024/03/18 00:46:13;;;;;;;10.70;8.87;;;;;;;4.21;72.65;93546.94;521136;28;902;-69
2024/03/18 00:46:29;;;;;;;11.90;9.05;;;;;;;4.11;72.61;93532.84;521232;28;753;-69
2024/03/18 00:46:45;;;;;;;11.93;8.77;;;;;;;3.88;72.90;93517.06;521261;28;855;-69
2024/03/18 00:47:02;;;;;;;10.38;8.80;;;;;;;4.03;73.11;93540.06;521270;28;836;-69
2024/03/18 00:47:17;;;;;;;10.65;9.05;;;;;;;4.01;72.88;93542.56;521155;28;816;-69
2024/03/18 00:47:33;;;;;;;12.05;9.57;;;;;;;4.02;73.07;93538.59;521074;28;1067;-69
2024/03/18 00:47:49;;;;;;;11.10;9.33;;;;;;;4.02;73.27;93544.06;521082;28;1105;-69
2024/03/18 00:48:05;;;;;;;10.48;8.23;;;;;;;4.04;73.33;93540.81;521087;28;1090;-69
2024/03/18 00:48:21;;;;;;;10.93;8.48;;;;;;;4.04;73.42;93543.53;521235;28;848;-69
2024/03/18 00:48:36;;;;;;;10.60;8.57;;;;;;;4.04;73.18;93538.09;521111;28;828;-69
2024/03/18 00:48:52;;;;;;;10.88;8.57;;;;;;;4.02;72.80;93538.59;521199;28;852;-69
2024/03/18 00:49:07;;;;;;;12.27;9.33;;;;;;;4.03;72.89;93537.34;521112;28;765;-69
2024/03/18 00:49:23;;;;;;;12.57;9.60;;;;;;;4.00;73.26;93529.41;521277;28;780;-69
2024/03/18 00:49:38;;;;;;;11.32;9.18;;;;;;;3.92;73.50;93542.13;521109;28;815;-69
2024/03/18 00:49:54;;;;;;;9.75;8.63;;;;;;;3.85;73.91;93540.66;521209;28;995;-69
2024/03/18 00:50:11;;;;;;;10.30;9.05;;;;;;;3.76;73.31;93532.75;521120;28;793;-69
2024/03/18 00:50:27;;;;;;;10.70;9.35;;;;;;;3.70;73.76;93537.50;521127;28;820;-69
2024/03/18 00:50:42;;;;;;;10.38;9.13;;;;;;;3.68;74.24;93540.72;521268;28;863;-69
2024/03/18 00:50:59;;;;;;;11.47;9.27;;;;;;;3.62;74.31;93541.97;521195;28;864;-69
2024/03/18 00:51:14;;;;;;;10.90;9.20;;;;;;;3.54;74.16;93541.75;521149;28;848;-70
2024/03/18 00:51:30;;;;;;;9.73;8.53;;;;;;;3.48;74.40;93543.03;521134;28;820;-69
2024/03/18 00:51:45;;;;;;;10.32;8.10;;;;;;;3.39;74.36;93541.31;521137;28;768;-70
2024/03/18 00:52:01;;;;;;;9.98;8.02;;;;;;;3.35;74.52;93545.53;521172;28;831;-69
2024/03/18 00:52:16;;;;;;;9.20;8.10;;;;;;;3.33;74.48;93542.56;521200;28;744;-69
2024/03/18 00:52:32;;;;;;;9.95;8.50;;;;;;;3.24;74.92;93535.38;521197;28;773;-69
2024/03/18 00:52:47;;;;;;;9.17;8.17;;;;;;;3.22;74.89;93542.59;521163;28;844;-69
2024/03/18 00:53:03;;;;;;;8.70;7.80;;;;;;;3.19;75.31;93538.09;521190;28;766;-69
2024/03/18 00:53:18;;;;;;;9.75;7.70;;;;;;;3.16;75.12;93539.13;521247;28;879;-69
2024/03/18 00:53:33;;;;;;;12.60;8.83;;;;;;;3.15;74.74;93532.91;521182;28;829;-69
2024/03/18 00:53:49;;;;;;;14.30;10.52;;;;;;;3.14;75.27;93536.16;521177;28;843;-69
2024/03/18 00:54:05;;;;;;;15.30;11.10;;;;;;;3.12;75.46;93538.63;521180;28;951;-69
2024/03/18 00:54:20;;;;;;;14.38;10.68;;;;;;;3.14;74.96;93536.16;521211;28;761;-69
2024/03/18 00:54:37;;;;;;;12.80;9.90;;;;;;;3.15;75.02;93532.16;521174;28;847;-69
2024/03/18 00:54:53;;;;;;;17.15;12.88;;;;;;;3.15;75.82;93529.44;521221;28;836;-69
2024/03/18 00:55:10;;;;;;;22.37;15.60;;;;;;;3.18;75.04;93533.91;521101;28;907;-69
2024/03/18 00:55:26;;;;;;;21.80;14.70;;;;;;;3.18;75.54;93536.63;521130;28;1926;-69
2024/03/18 00:55:41;;;;;;;18.27;13.70;;;;;;;3.19;75.15;93533.41;521210;28;757;-69
2024/03/18 00:55:56;;;;;;;16.23;12.97;;;;;;;3.19;74.87;93543.56;521121;28;820;-69
2024/03/18 00:56:12;;;;;;;17.20;12.60;;;;;;;3.17;76.02;93537.88;521146;28;752;-69
2024/03/18 00:56:27;;;;;;;17.90;12.30;;;;;;;3.18;75.64;93542.09;521232;28;856;-69
2024/03/18 00:56:43;;;;;;;16.77;12.38;;;;;;;3.18;75.35;93533.91;521197;28;856;-69
2024/03/18 00:56:58;;;;;;;16.67;12.77;;;;;;;3.16;76.02;93539.13;521238;28;753;-69
2024/03/18 00:57:14;;;;;;;17.88;13.60;;;;;;;3.12;75.77;93542.09;521127;28;869;-69
2024/03/18 00:57:29;;;;;;;17.83;13.70;;;;;;;3.09;75.57;93526.72;521114;28;1003;-69
2024/03/18 00:57:45;;;;;;;15.95;12.85;;;;;;;3.08;75.73;93534.16;521299;28;792;-69
2024/03/18 00:58:00;;;;;;;16.57;12.90;;;;;;;3.08;75.70;93541.59;521163;28;808;-69
2024/03/18 00:58:16;;;;;;;18.85;13.45;;;;;;;3.10;75.83;93536.38;521186;28;796;-69
2024/03/18 00:58:32;;;;;;;19.13;13.83;;;;;;;3.13;75.71;93537.38;521018;28;839;-69
2024/03/18 00:58:47;;;;;;;18.63;13.82;;;;;;;3.14;75.74;93538.88;521027;28;816;-69
2024/03/18 00:59:06;;;;;;;17.80;13.73;;;;;;;3.18;75.09;93533.91;521022;28;883;-69
2024/03/18 00:59:22;;;;;;;17.33;13.73;;;;;;;3.22;75.54;93531.66;521026;28;840;-69
2024/03/18 00:59:37;;;;;;;18.20;13.40;;;;;;;3.25;75.39;93538.88;521054;28;820;-69
2024/03/18 00:59:52;;;;;;;18.38;13.40;;;;;;;3.28;74.96;93535.13;521044;28;823;-69
2024/03/18 01:00:11;;;;;;;16.57;12.93;;;;;;;3.30;74.87;93538.09;520933;28;852;-69
2024/03/18 01:00:26;;;;;;;15.50;12.00;;;;;;;3.30;74.87;93536.13;521110;28;887;-69
2024/03/18 01:00:42;;;;;;;16.97;12.13;;;;;;;3.33;74.49;93543.31;521186;28;848;-69
2024/03/18 01:00:57;;;;;;;17.67;12.30;;;;;;;3.36;74.71;93541.53;521209;28;812;-69
2024/03/18 01:01:13;;;;;;;16.25;12.13;;;;;;;3.39;74.11;93543.28;521136;28;844;-69
2024/03/18 01:01:28;;;;;;;15.57;12.20;;;;;;;3.41;74.45;93543.53;521115;28;1129;-69
2024/03/18 01:01:44;;;;;;;16.20;12.27;;;;;;;3.36;74.37;93525.16;521162;28;839;-69
2024/03/18 01:01:59;;;;;;;15.83;11.50;;;;;;;3.45;74.46;93542.03;521214;28;816;-69
2024/03/18 01:02:15;;;;;;;13.95;10.70;;;;;;;3.48;74.73;93543.03;521215;28;785;-69
2024/03/18 01:02:30;;;;;;;13.47;10.73;;;;;;;3.51;74.85;93536.56;521089;28;793;-69
2024/03/18 01:02:45;;;;;;;13.83;10.87;;;;;;;3.52;74.04;93540.78;521137;28;844;-69
2024/03/18 01:03:03;;;;;;;13.27;10.70;;;;;;;3.54;74.15;93533.56;521225;28;749;-69
2024/03/18 01:03:18;;;;;;;14.50;11.68;;;;;;;3.55;74.41;93539.78;521128;28;934;-69
2024/03/18 01:03:34;;;;;;;15.70;11.90;;;;;;;3.57;74.66;93535.28;521138;28;887;-69
2024/03/18 01:03:49;;;;;;;16.92;12.07;;;;;;;3.58;73.67;93536.03;521154;28;757;-69
2024/03/18 01:04:05;;;;;;;17.57;12.53;;;;;;;3.52;74.28;93543.50;521132;28;825;-69
2024/03/18 01:04:20;;;;;;;16.00;12.17;;;;;;;3.46;74.20;93543.53;521150;28;749;-69
2024/03/18 01:04:36;;;;;;;13.95;11.60;;;;;;;3.43;73.88;93541.78;521153;28;791;-69
2024/03/18 01:04:51;;;;;;;13.63;11.63;;;;;;;3.37;73.98;93532.88;521234;28;800;-69
2024/03/18 01:05:09;;;;;;;14.25;12.00;;;;;;;3.33;74.60;93526.94;523006;28;1573;-69
2024/03/18 01:05:24;;;;;;;16.10;11.90;;;;;;;3.31;74.51;93534.13;523097;28;855;-69
2024/03/18 01:05:40;;;;;;;17.43;12.23;;;;;;;3.27;75.02;93533.66;522969;28;801;-69
2024/03/18 01:05:55;;;;;;;15.63;12.40;;;;;;;3.20;75.06;93531.44;523044;28;835;-69
2024/03/18 01:06:11;;;;;;;13.23;11.67;;;;;;;3.15;75.35;93538.38;523063;28;863;-69
2024/03/18 01:06:27;;;;;;;13.68;11.60;;;;;;;2.82;75.50;93506.44;523075;28;745;-69
2024/03/18 01:06:42;;;;;;;15.00;11.87;;;;;;;3.00;75.74;93530.47;523122;28;840;-69
2024/03/18 01:07:00;;;;;;;15.10;12.07;;;;;;;2.96;76.08;93529.22;522379;28;817;-68
2024/03/18 01:07:16;;;;;;;16.10;12.00;;;;;;;2.93;76.10;93533.69;521117;28;813;-69
2024/03/18 01:07:31;;;;;;;17.88;11.90;;;;;;;2.93;75.69;93524.75;521090;28;848;-68
2024/03/18 01:07:47;;;;;;;16.53;11.13;;;;;;;2.91;75.71;93529.97;521151;28;888;-69
2024/03/18 01:08:03;;;;;;;16.00;11.07;;;;;;;2.87;75.91;93524.78;521126;28;847;-69
2024/03/18 01:08:18;;;;;;;14.68;11.68;;;;;;;2.85;75.89;93526.50;521022;28;1219;-69
2024/03/18 01:08:34;;;;;;;13.13;11.27;;;;;;;2.82;76.10;93530.22;521161;28;765;-69
2024/03/18 01:08:49;;;;;;;14.80;10.53;;;;;;;2.83;75.75;93531.72;521167;28;965;-69
2024/03/18 01:09:05;;;;;;;17.08;10.43;;;;;;;2.74;75.97;93524.53;521144;28;887;-69
2024/03/18 01:09:20;;;;;;;14.33;10.30;;;;;;;2.76;75.92;93527.50;521166;28;820;-69
2024/03/18 01:09:37;;;;;;;12.07;9.75;;;;;;;2.75;75.85;93531.47;521148;28;757;-69
2024/03/18 01:09:53;;;;;;;13.38;9.75;;;;;;;2.74;76.11;93532.72;521044;28;848;-69
2024/03/18 01:10:08;;;;;;;11.73;8.90;;;;;;;2.74;75.53;93532.72;520974;28;765;-69
2024/03/18 01:10:24;;;;;;;11.10;8.55;;;;;;;2.73;75.60;93530.50;521020;28;836;-69
2024/03/18 01:10:39;;;;;;;14.00;9.13;;;;;;;2.73;76.07;93533.22;520987;28;892;-69
2024/03/18 01:10:55;;;;;;;12.40;8.83;;;;;;;2.70;75.88;93526.03;521096;28;816;-69
2024/03/18 01:11:10;;;;;;;10.40;8.85;;;;;;;2.71;75.85;93527.50;520956;28;883;-69
2024/03/18 01:11:26;;;;;;;10.70;9.13;;;;;;;2.73;75.90;93531.22;520941;28;807;-69
2024/03/18 01:11:41;;;;;;;11.73;9.57;;;;;;;2.74;76.37;93532.72;521050;28;820;-69
2024/03/18 01:11:57;;;;;;;12.93;10.02;;;;;;;2.76;76.04;93532.22;521145;28;768;-69
2024/03/18 01:12:12;;;;;;;12.23;9.97;;;;;;;2.77;76.33;93536.44;521245;28;789;-69
2024/03/18 01:12:27;;;;;;;13.43;9.73;;;;;;;2.78;75.98;93535.19;521121;28;801;-69
2024/03/18 01:12:43;;;;;;;12.20;8.63;;;;;;;2.79;75.30;93531.22;521187;28;848;-69
2024/03/18 01:12:58;;;;;;;11.70;8.65;;;;;;;2.81;75.53;93526.78;521184;28;792;-69
2024/03/18 01:13:14;;;;;;;12.33;8.73;;;;;;;2.85;75.46;93535.44;521138;28;789;-69
2024/03/18 01:13:35;;;;;;;11.57;8.57;;;;;;;2.88;75.48;93536.44;521090;28;831;-69
2024/03/18 01:13:50;;;;;;;13.50;9.55;;;;;;;2.88;75.42;93539.16;521161;28;851;-69
2024/03/18 01:14:06;;;;;;;13.70;9.83;;;;;;;2.83;75.38;93532.47;521102;28;761;-69
2024/03/18 01:14:22;;;;;;;12.65;9.80;;;;;;;2.83;75.08;93532.47;521207;28;768;-69
2024/03/18 01:14:37;;;;;;;12.53;9.13;;;;;;;2.86;75.52;93527.97;521118;28;856;-69
2024/03/18 01:14:52;;;;;;;12.10;8.80;;;;;;;2.87;75.17;93530.22;521184;28;748;-69
2024/03/18 01:15:08;;;;;;;10.37;8.60;;;;;;;2.90;75.30;93523.03;521125;28;792;-69
2024/03/18 01:15:24;;;;;;;11.68;9.18;;;;;;;2.92;74.92;93531.47;521055;28;1918;-69
2024/03/18 01:15:39;;;;;;;14.98;10.43;;;;;;;2.96;75.03;93529.22;521123;28;852;-69
2024/03/18 01:15:55;;;;;;;14.53;10.33;;;;;;;2.99;75.23;93528.97;521181;28;993;-69
2024/03/18 01:16:10;;;;;;;11.53;9.40;;;;;;;3.01;75.07;93528.50;521087;28;761;-69
2024/03/18 01:16:26;;;;;;;10.15;8.57;;;;;;;2.96;74.99;93527.25;521080;28;765;-69
2024/03/18 01:16:41;;;;;;;9.83;8.50;;;;;;;2.90;75.25;93534.69;521113;28;986;-69
2024/03/18 01:16:57;;;;;;;10.73;8.95;;;;;;;2.83;75.42;93524.28;521177;28;765;-69
2024/03/18 01:17:13;;;;;;;13.00;9.25;;;;;;;2.81;75.46;93532.22;521120;28;840;-69